地図

経路データ

SID SEASON NUMBER BASIN SUBBASIN NAME ISO_TIME NATURE LAT LON WMO_WIND WMO_PRES WMO_AGENCY TRACK_TYPE DIST2LAND LANDFALL IFLAG USA_AGENCY USA_ATCF_ID USA_LAT USA_LON USA_RECORD USA_STATUS USA_WIND USA_PRES USA_SSHS USA_R34_NE USA_R34_SE USA_R34_SW USA_R34_NW USA_R50_NE USA_R50_SE USA_R50_SW USA_R50_NW USA_R64_NE USA_R64_SE USA_R64_SW USA_R64_NW USA_POCI USA_ROCI USA_RMW USA_EYE TOKYO_LAT TOKYO_LON TOKYO_GRADE TOKYO_WIND TOKYO_PRES TOKYO_R50_DIR TOKYO_R50_LONG TOKYO_R50_SHORT TOKYO_R30_DIR TOKYO_R30_LONG TOKYO_R30_SHORT TOKYO_LAND CMA_LAT CMA_LON CMA_CAT CMA_WIND CMA_PRES HKO_LAT HKO_LON HKO_CAT HKO_WIND HKO_PRES NEWDELHI_LAT NEWDELHI_LON NEWDELHI_GRADE NEWDELHI_WIND NEWDELHI_PRES NEWDELHI_CI NEWDELHI_DP NEWDELHI_POCI REUNION_LAT REUNION_LON REUNION_TYPE REUNION_WIND REUNION_PRES REUNION_TNUM REUNION_CI REUNION_RMW REUNION_R34_NE REUNION_R34_SE REUNION_R34_SW REUNION_R34_NW REUNION_R50_NE REUNION_R50_SE REUNION_R50_SW REUNION_R50_NW REUNION_R64_NE REUNION_R64_SE REUNION_R64_SW REUNION_R64_NW BOM_LAT BOM_LON BOM_TYPE BOM_WIND BOM_PRES BOM_TNUM BOM_CI BOM_RMW BOM_R34_NE BOM_R34_SE BOM_R34_SW BOM_R34_NW BOM_R50_NE BOM_R50_SE BOM_R50_SW BOM_R50_NW BOM_R64_NE BOM_R64_SE BOM_R64_SW BOM_R64_NW BOM_ROCI BOM_POCI BOM_EYE BOM_POS_METHOD BOM_PRES_METHOD NADI_LAT NADI_LON NADI_CAT NADI_WIND NADI_PRES WELLINGTON_LAT WELLINGTON_LON WELLINGTON_WIND WELLINGTON_PRES DS824_LAT DS824_LON DS824_STAGE DS824_WIND DS824_PRES TD9636_LAT TD9636_LON TD9636_STAGE TD9636_WIND TD9636_PRES TD9635_LAT TD9635_LON TD9635_WIND TD9635_PRES TD9635_ROCI NEUMANN_LAT NEUMANN_LON NEUMANN_CLASS NEUMANN_WIND NEUMANN_PRES MLC_LAT MLC_LON MLC_CLASS MLC_WIND MLC_PRES USA_GUST BOM_GUST BOM_GUST_PER REUNION_GUST REUNION_GUST_PER USA_SEAHGT USA_SEARAD_NE USA_SEARAD_SE USA_SEARAD_SW USA_SEARAD_NW STORM_SPEED STORM_DIR
1932308N14312 1932 71 NA NA NOT_NAMED 1932-11-03 06:00:00 TS 13.8000 -47.8000 35 hurdat_atl main 1097 1097 O_____________ hurdat_atl AL151932 13.8000 -47.8000 TS 35 0 11 351
1932308N14312 1932 71 NA NA NOT_NAMED 1932-11-03 09:00:00 TS 14.3475 -47.8876 main 1141 1141 P_____________ AL151932 14.3475 -47.8876 TS 35 0 11 350
1932308N14312 1932 71 NA NA NOT_NAMED 1932-11-03 12:00:00 TS 14.9000 -48.0000 35 hurdat_atl main 1196 1196 O_____________ hurdat_atl AL151932 14.9000 -48.0000 TS 35 0 11 348
1932308N14312 1932 71 NA NA NOT_NAMED 1932-11-03 15:00:00 TS 15.4575 -48.1373 main 1252 1248 P_____________ AL151932 15.4575 -48.1373 TS 35 0 11 350
1932308N14312 1932 71 NA NA NOT_NAMED 1932-11-03 18:00:00 TS 16.0000 -48.2000 35 hurdat_atl main 1299 1299 O_____________ hurdat_atl AL151932 16.0000 -48.2000 TS 35 0 11 0
1932308N14312 1932 71 NA NA NOT_NAMED 1932-11-03 21:00:00 TS 16.5074 -48.1175 main 1355 1355 P_____________ AL151932 16.5074 -48.1175 TS 35 0 10 16
1932308N14312 1932 71 NA NA NOT_NAMED 1932-11-04 00:00:00 TS 17.0000 -47.9000 35 hurdat_atl main 1414 1414 O_____________ hurdat_atl AL151932 17.0000 -47.9000 TS 35 0 11 26
1932308N14312 1932 71 NA NA NOT_NAMED 1932-11-04 03:00:00 TS 17.4999 -47.6023 main 1478 1478 P_____________ AL151932 17.4999 -47.6023 TS 35 0 12 34
1932308N14312 1932 71 NA NA NOT_NAMED 1932-11-04 06:00:00 TS 18.0000 -47.2000 35 hurdat_atl main 1547 1547 O_____________ hurdat_atl AL151932 18.0000 -47.2000 TS 35 0 13 40
1932308N14312 1932 71 NA NA NOT_NAMED 1932-11-04 09:00:00 TS 18.5001 -46.7075 main 1619 1619 P_____________ AL151932 18.5001 -46.7075 TS 37 0 14 43
1932308N14312 1932 71 NA NA NOT_NAMED 1932-11-04 12:00:00 TS 19.0000 -46.2000 40 hurdat_atl main 1692 1692 O_____________ hurdat_atl AL151932 19.0000 -46.2000 TS 40 0 13 42
1932308N14312 1932 71 NA NA NOT_NAMED 1932-11-04 15:00:00 TS 19.4999 -45.7698 main 1761 1761 P_____________ AL151932 19.4999 -45.7698 TS 40 0 13 37
1932308N14312 1932 71 NA NA NOT_NAMED 1932-11-04 18:00:00 TS 20.0000 -45.4000 40 hurdat_atl main 1830 1830 O_____________ hurdat_atl AL151932 20.0000 -45.4000 TS 40 0 12 34
1932308N14312 1932 71 NA NA NOT_NAMED 1932-11-04 21:00:00 TS 20.4999 -45.0624 main 1894 1894 P_____________ AL151932 20.4999 -45.0624 TS 40 0 12 29
1932308N14312 1932 71 NA NA NOT_NAMED 1932-11-05 00:00:00 TS 21.0000 -44.8000 40 hurdat_atl main 1958 1958 O_____________ hurdat_atl AL151932 21.0000 -44.8000 TS 40 0 11 23
1932308N14312 1932 71 NA NA NOT_NAMED 1932-11-05 03:00:00 TS 21.4999 -44.6049 main 2017 2017 P_____________ AL151932 21.4999 -44.6049 TS 40 0 10 16
1932308N14312 1932 71 NA NA NOT_NAMED 1932-11-05 06:00:00 TS 22.0000 -44.5000 40 hurdat_atl main 2072 2072 O_____________ hurdat_atl AL151932 22.0000 -44.5000 TS 40 0 10 9
1932308N14312 1932 71 NA NA NOT_NAMED 1932-11-05 09:00:00 TS 22.4999 -44.4402 main 2126 2126 P_____________ AL151932 22.4999 -44.4402 TS 42 0 10 1
1932308N14312 1932 71 NA NA NOT_NAMED 1932-11-05 12:00:00 TS 23.0000 -44.5000 45 hurdat_atl main 2172 2172 O_____________ hurdat_atl AL151932 23.0000 -44.5000 TS 45 0 10 347
1932308N14312 1932 71 NA NA NOT_NAMED 1932-11-05 15:00:00 TS 23.5074 -44.6900 main 2214 2214 P_____________ AL151932 23.5074 -44.6900 TS 47 0 11 335
1932308N14312 1932 71 NA NA NOT_NAMED 1932-11-05 18:00:00 TS 24.0000 -45.0000 50 hurdat_atl main 2222 2200 O_____________ hurdat_atl AL151932 24.0000 -45.0000 TS 50 0 11 327
1932308N14312 1932 71 NA NA NOT_NAMED 1932-11-05 21:00:00 TS 24.4649 -45.3627 main 2195 2168 P_____________ AL151932 24.4649 -45.3627 TS 52 0 12 321
1932308N14312 1932 71 NA NA NOT_NAMED 1932-11-06 00:00:00 TS 24.9000 -45.8000 55 hurdat_atl main 2168 2132 O_____________ hurdat_atl AL151932 24.9000 -45.8000 TS 55 0 12 315
1932308N14312 1932 71 NA NA NOT_NAMED 1932-11-06 03:00:00 TS 25.3227 -46.3074 main 2132 2098 P_____________ AL151932 25.3227 -46.3074 TS 57 0 12 312
1932308N14312 1932 71 NA NA NOT_NAMED 1932-11-06 06:00:00 TS 25.7000 -46.8000 60 hurdat_atl main 2098 2072 O_____________ hurdat_atl AL151932 25.7000 -46.8000 TS 60 0 11 311
1932308N14312 1932 71 NA NA NOT_NAMED 1932-11-06 09:00:00 TS 26.0299 -47.1952 main 2072 2056 P_____________ AL151932 26.0299 -47.1952 TS 60 0 9 314
1932308N14312 1932 71 NA NA NOT_NAMED 1932-11-06 12:00:00 TS 26.3000 -47.5000 60 hurdat_atl main 2056 2042 O_____________ hurdat_atl AL151932 26.3000 -47.5000 TS 60 0 7 315
1932308N14312 1932 71 NA NA NOT_NAMED 1932-11-06 15:00:00 TS 26.5224 -47.7377 main 2046 2032 P_____________ AL151932 26.5224 -47.7377 TS 62 0 5 318
1932308N14312 1932 71 NA NA NOT_NAMED 1932-11-06 18:00:00 TS 26.7000 -47.9000 65 hurdat_atl main 2037 2032 O_____________ hurdat_atl AL151932 26.7000 -47.9000 HU 65 1 4 323
1932308N14312 1932 71 NA NA NOT_NAMED 1932-11-06 21:00:00 TS 26.8725 -48.0301 main 2036 2027 P_____________ AL151932 26.8725 -48.0301 HU 65 1 4 330
1932308N14312 1932 71 NA NA NOT_NAMED 1932-11-07 00:00:00 TS 27.0000 -48.1000 65 hurdat_atl main 2032 2032 O_____________ hurdat_atl AL151932 27.0000 -48.1000 HU 65 1 2 336
1932308N14312 1932 71 NA NA NOT_NAMED 1932-11-07 03:00:00 TS 27.0425 -48.1225 main 2032 2032 P_____________ AL151932 27.0425 -48.1225 HU 67 1 1 0
1932308N14312 1932 71 NA NA NOT_NAMED 1932-11-07 06:00:00 TS 27.1000 -48.1000 70 hurdat_atl main 2037 2037 O_____________ hurdat_atl AL151932 27.1000 -48.1000 HU 70 1 2 14
1932308N14312 1932 71 NA NA NOT_NAMED 1932-11-07 09:00:00 TS 27.2700 -48.0575 main 2046 2046 P_____________ AL151932 27.2700 -48.0575 HU 72 1 4 12
1932308N14312 1932 71 NA NA NOT_NAMED 1932-11-07 12:00:00 TS 27.5000 -48.0000 75 hurdat_atl main 2065 2065 O_____________ hurdat_atl AL151932 27.5000 -48.0000 HU 75 1 5 10
1932308N14312 1932 71 NA NA NOT_NAMED 1932-11-07 15:00:00 TS 27.7275 -47.9648 main 2074 2074 P_____________ AL151932 27.7275 -47.9648 HU 77 1 5 10
1932308N14312 1932 71 NA NA NOT_NAMED 1932-11-07 18:00:00 TS 28.0000 -47.9000 80 hurdat_atl main 2098 2091 O_____________ hurdat_atl AL151932 28.0000 -47.9000 HU 80 1 6 13
1932308N14312 1932 71 NA NA NOT_NAMED 1932-11-07 21:00:00 TS 28.2897 -47.8165 main 2091 2051 P_____________ AL151932 28.2897 -47.8165 HU 82 1 8 21
1932308N14312 1932 71 NA NA NOT_NAMED 1932-11-08 00:00:00 TS 28.7000 -47.6000 85 hurdat_atl main 2051 1995 O_____________ hurdat_atl AL151932 28.7000 -47.6000 HU 85 2 12 30
1932308N14312 1932 71 NA NA NOT_NAMED 1932-11-08 03:00:00 TS 29.2901 -47.1675 main 1995 1933 P_____________ AL151932 29.2901 -47.1675 HU 85 2 16 34
1932308N14312 1932 71 NA NA NOT_NAMED 1932-11-08 06:00:00 TS 30.0000 -46.6000 85 hurdat_atl main 1933 1871 O_____________ hurdat_atl AL151932 30.0000 -46.6000 HU 85 2 18 35
1932308N14312 1932 71 NA NA NOT_NAMED 1932-11-08 09:00:00 TS 30.7576 -46.0004 main 1864 1807 P_____________ AL151932 30.7576 -46.0004 HU 85 2 18 34
1932308N14312 1932 71 NA NA NOT_NAMED 1932-11-08 12:00:00 TS 31.5000 -45.4000 85 hurdat_atl main 1807 1761 O_____________ hurdat_atl AL151932 31.5000 -45.4000 HU 85 2 17 35
1932308N14312 1932 71 NA NA NOT_NAMED 1932-11-08 15:00:00 TS 32.1447 -44.8693 main 1761 1717 P_____________ AL151932 32.1447 -44.8693 HU 85 2 15 35
1932308N14312 1932 71 NA NA NOT_NAMED 1932-11-08 18:00:00 TS 32.7000 -44.4000 85 hurdat_atl main 1717 1681 O_____________ hurdat_atl AL151932 32.7000 -44.4000 HU 85 2 13 36
1932308N14312 1932 71 NA NA NOT_NAMED 1932-11-08 21:00:00 TS 33.1798 -43.9767 main 1681 1657 P_____________ AL151932 33.1798 -43.9767 HU 85 2 11 37
1932308N14312 1932 71 NA NA NOT_NAMED 1932-11-09 00:00:00 TS 33.6000 -43.6000 85 hurdat_atl main 1657 1629 O_____________ hurdat_atl AL151932 33.6000 -43.6000 HU 85 2 10 35
1932308N14312 1932 71 NA NA NOT_NAMED 1932-11-09 03:00:00 TS 34.0222 -43.2570 main 1629 1608 P_____________ AL151932 34.0222 -43.2570 HU 85 2 10 36
1932308N14312 1932 71 NA NA NOT_NAMED 1932-11-09 06:00:00 TS 34.4000 -42.9000 85 hurdat_atl main 1608 1593 O_____________ hurdat_atl AL151932 34.4000 -42.9000 HU 85 2 9 40
1932308N14312 1932 71 NA NA NOT_NAMED 1932-11-09 09:00:00 TS 34.7137 -42.5462 main 1597 1588 P_____________ AL151932 34.7137 -42.5462 HU 82 1 10 51
1932308N14312 1932 71 NA NA NOT_NAMED 1932-11-09 12:00:00 TS 35.0000 -42.0000 80 hurdat_atl main 1593 1593 O_____________ hurdat_atl AL151932 35.0000 -42.0000 HU 80 1 13 63
1932308N14312 1932 71 NA NA NOT_NAMED 1932-11-09 15:00:00 TS 35.2986 -41.1566 main 1605 1605 P_____________ AL151932 35.2986 -41.1566 HU 77 1 17 70
1932308N14312 1932 71 NA NA NOT_NAMED 1932-11-09 18:00:00 TS 35.6000 -40.0000 75 hurdat_atl main 1642 1642 O_____________ hurdat_atl AL151932 35.6000 -40.0000 HU 75 1 22 74
1932308N14312 1932 71 NA NA NOT_NAMED 1932-11-09 21:00:00 TS 35.8917 -38.6110 main 1696 1696 P_____________ AL151932 35.8917 -38.6110 HU 72 1 25 76
1932308N14312 1932 71 NA NA NOT_NAMED 1932-11-10 00:00:00 TS 36.2000 -37.0000 70 hurdat_atl main 1769 1769 O_____________ hurdat_atl AL151932 36.2000 -37.0000 HU 70 1 27 76
1932308N14312 1932 71 NA NA NOT_NAMED 1932-11-10 03:00:00 TS 36.5398 -35.3235 main 1853 1836 P_____________ AL151932 36.5398 -35.3235 HU 70 1 29 76
1932308N14312 1932 71 NA NA NOT_NAMED 1932-11-10 06:00:00 ET 36.9000 -33.5000 70 hurdat_atl main 1828 1697 O_____________ hurdat_atl AL151932 36.9000 -33.5000 EX 70 -4 31 77
1932308N14312 1932 71 NA NA NOT_NAMED 1932-11-10 09:00:00 ET 37.2428 -31.4986 main 1690 1577 P_____________ AL151932 37.2428 -31.4986 EX 70 -4 33 78
1932308N14312 1932 71 NA NA NOT_NAMED 1932-11-10 12:00:00 ET 37.6000 -29.5000 70 hurdat_atl main 1570 1484 O_____________ hurdat_atl AL151932 37.6000 -29.5000 EX 70 -4 31 76
1932308N14312 1932 71 NA NA NOT_NAMED 1932-11-10 15:00:00 ET 37.9926 -27.6913 main 1479 1416 P_____________ AL151932 37.9926 -27.6913 EX 65 -4 29 74
1932308N14312 1932 71 NA NA NOT_NAMED 1932-11-10 18:00:00 ET 38.4000 -26.0000 60 hurdat_atl main 1410 O_____________ hurdat_atl AL151932 38.4000 -26.0000 EX 60 -4 28 73

IBTrACS Databaseについて

本データベースは、米国NOAAが公開する1842年以降の世界の熱帯低気圧のベストトラックデータアーカイブInternational Best Track Archive for Climate Stewardship (IBTrACS)を、ウェブで閲覧しやすい形式に変換したものです。

最終更新日:2021-10-25